Oakbrook, Washington
Current Conditions -  °F | °C
As of 1:58 AM on Friday 24 Oct 2014 (Local Time) from KTCM Reporting Station
Overcast Overcast  
Wind Chill: 45°   Ceiling: 6000
Heat Index: 48°   Visibility: 10mi
Dew Point: 48°   Wind: 7mph
Humidity: 99%   Direction: 120°ESE
Pressure: 30.03"   Gusts: NA
Location:  47.1809°N, 122.548°W
Report Text: KTCM 240858Z AUTO 12006KT 10SM FEW043 OVC060 09/09 A3003 RMK AO2 RAE0842 SLP173 P0001 60008 T00890088 50013 $
Loading
Personal Weather Stations






























Interactive Weather Map
Tropical Storm Tracking
New forecast layout! Learn more

10-Day Weather Forecast

Advertisements
Track Severe Weather on mobile